sensor_id;sensor_type;location;lat;lon;timestamp;P1;durP1;ratioP1;P2;durP2;ratioP2
15573;SDS011;7888;46.748;8.102;2022-12-18T00:01:16;4.60;;;3.20;;
15573;SDS011;7888;46.748;8.102;2022-12-18T00:03:44;5.33;;;3.27;;
15573;SDS011;7888;46.748;8.102;2022-12-18T00:06:11;3.50;;;2.77;;
15573;SDS011;7888;46.748;8.102;2022-12-18T00:08:38;3.83;;;2.90;;
15573;SDS011;7888;46.748;8.102;2022-12-18T00:11:06;14.37;;;7.90;;
15573;SDS011;7888;46.748;8.102;2022-12-18T00:13:35;14.20;;;6.87;;
15573;SDS011;7888;46.748;8.102;2022-12-18T00:16:02;10.50;;;5.27;;
15573;SDS011;7888;46.748;8.102;2022-12-18T00:18:34;6.00;;;3.70;;
15573;SDS011;7888;46.748;8.102;2022-12-18T00:21:01;5.13;;;3.40;;
15573;SDS011;7888;46.748;8.102;2022-12-18T00:23:30;3.80;;;2.90;;
15573;SDS011;7888;46.748;8.102;2022-12-18T00:26:02;3.07;;;2.63;;
15573;SDS011;7888;46.748;8.102;2022-12-18T00:28:40;4.77;;;3.33;;
15573;SDS011;7888;46.748;8.102;2022-12-18T00:31:09;4.00;;;3.13;;
15573;SDS011;7888;46.748;8.102;2022-12-18T00:33:37;5.23;;;3.50;;
15573;SDS011;7888;46.748;8.102;2022-12-18T00:36:07;4.30;;;3.53;;
15573;SDS011;7888;46.748;8.102;2022-12-18T00:38:37;4.70;;;3.60;;
15573;SDS011;7888;46.748;8.102;2022-12-18T00:41:04;5.10;;;3.60;;
15573;SDS011;7888;46.748;8.102;2022-12-18T00:43:31;4.83;;;3.60;;
15573;SDS011;7888;46.748;8.102;2022-12-18T00:45:57;4.37;;;3.40;;
15573;SDS011;7888;46.748;8.102;2022-12-18T00:48:22;4.90;;;3.40;;
15573;SDS011;7888;46.748;8.102;2022-12-18T00:50:50;4.30;;;3.30;;
15573;SDS011;7888;46.748;8.102;2022-12-18T00:53:16;4.57;;;3.60;;
15573;SDS011;7888;46.748;8.102;2022-12-18T00:55:43;3.10;;;2.50;;
15573;SDS011;7888;46.748;8.102;2022-12-18T00:58:10;5.33;;;3.30;;
15573;SDS011;7888;46.748;8.102;2022-12-18T01:00:38;4.47;;;3.20;;
15573;SDS011;7888;46.748;8.102;2022-12-18T01:03:04;5.10;;;4.13;;
15573;SDS011;7888;46.748;8.102;2022-12-18T01:05:30;6.33;;;4.43;;
15573;SDS011;7888;46.748;8.102;2022-12-18T01:07:57;5.20;;;3.90;;
15573;SDS011;7888;46.748;8.102;2022-12-18T01:10:24;5.80;;;4.60;;
15573;SDS011;7888;46.748;8.102;2022-12-18T01:12:50;4.80;;;3.77;;
15573;SDS011;7888;46.748;8.102;2022-12-18T01:15:16;5.73;;;4.13;;
15573;SDS011;7888;46.748;8.102;2022-12-18T01:17:43;3.97;;;2.97;;
15573;SDS011;7888;46.748;8.102;2022-12-18T01:20:09;4.03;;;3.20;;
15573;SDS011;7888;46.748;8.102;2022-12-18T01:22:37;5.07;;;3.47;;
15573;SDS011;7888;46.748;8.102;2022-12-18T01:25:04;4.43;;;3.67;;
15573;SDS011;7888;46.748;8.102;2022-12-18T01:27:31;5.13;;;3.33;;
15573;SDS011;7888;46.748;8.102;2022-12-18T01:29:59;5.03;;;3.47;;
15573;SDS011;7888;46.748;8.102;2022-12-18T01:32:24;23.63;;;4.40;;
15573;SDS011;7888;46.748;8.102;2022-12-18T01:34:50;4.00;;;3.03;;
15573;SDS011;7888;46.748;8.102;2022-12-18T01:37:16;3.83;;;3.17;;
15573;SDS011;7888;46.748;8.102;2022-12-18T01:39:42;4.07;;;3.03;;
15573;SDS011;7888;46.748;8.102;2022-12-18T01:42:11;3.93;;;3.10;;
15573;SDS011;7888;46.748;8.102;2022-12-18T01:53:15;3.40;;;3.07;;
15573;SDS011;7888;46.748;8.102;2022-12-18T01:55:52;3.73;;;3.03;;
15573;SDS011;7888;46.748;8.102;2022-12-18T01:58:36;3.23;;;2.70;;
15573;SDS011;7888;46.748;8.102;2022-12-18T02:01:18;3.63;;;2.47;;
15573;SDS011;7888;46.748;8.102;2022-12-18T02:03:46;3.63;;;2.83;;
15573;SDS011;7888;46.748;8.102;2022-12-18T02:06:13;4.33;;;3.43;;
15573;SDS011;7888;46.748;8.102;2022-12-18T02:17:13;4.40;;;3.20;;
15573;SDS011;7888;46.748;8.102;2022-12-18T02:28:43;3.10;;;2.53;;
15573;SDS011;7888;46.748;8.102;2022-12-18T02:31:18;2.77;;;2.37;;
15573;SDS011;7888;46.748;8.102;2022-12-18T02:33:56;3.73;;;3.03;;
15573;SDS011;7888;46.748;8.102;2022-12-18T02:36:28;3.20;;;2.90;;
15573;SDS011;7888;46.748;8.102;2022-12-18T02:38:58;3.27;;;2.37;;
15573;SDS011;7888;46.748;8.102;2022-12-18T02:41:26;3.30;;;2.67;;
15573;SDS011;7888;46.748;8.102;2022-12-18T02:43:55;5.13;;;2.47;;
15573;SDS011;7888;46.748;8.102;2022-12-18T02:46:28;3.10;;;2.30;;
15573;SDS011;7888;46.748;8.102;2022-12-18T02:52:35;2.90;;;2.30;;
15573;SDS011;7888;46.748;8.102;2022-12-18T02:55:48;3.87;;;2.30;;
15573;SDS011;7888;46.748;8.102;2022-12-18T03:01:08;3.10;;;2.23;;
15573;SDS011;7888;46.748;8.102;2022-12-18T03:04:01;2.67;;;2.00;;
15573;SDS011;7888;46.748;8.102;2022-12-18T03:06:45;2.30;;;1.90;;
15573;SDS011;7888;46.748;8.102;2022-12-18T03:09:19;3.30;;;2.53;;
15573;SDS011;7888;46.748;8.102;2022-12-18T03:11:56;2.77;;;2.30;;
15573;SDS011;7888;46.748;8.102;2022-12-18T03:15:02;2.43;;;2.10;;
15573;SDS011;7888;46.748;8.102;2022-12-18T03:17:30;1.83;;;1.63;;
15573;SDS011;7888;46.748;8.102;2022-12-18T03:20:00;4.33;;;2.10;;
15573;SDS011;7888;46.748;8.102;2022-12-18T03:22:34;2.77;;;2.00;;
15573;SDS011;7888;46.748;8.102;2022-12-18T03:25:04;2.33;;;2.03;;
15573;SDS011;7888;46.748;8.102;2022-12-18T03:27:36;2.87;;;2.03;;
15573;SDS011;7888;46.748;8.102;2022-12-18T03:30:10;2.30;;;2.10;;
15573;SDS011;7888;46.748;8.102;2022-12-18T03:32:41;2.83;;;2.30;;
15573;SDS011;7888;46.748;8.102;2022-12-18T03:35:19;2.87;;;2.30;;
15573;SDS011;7888;46.748;8.102;2022-12-18T03:37:51;2.03;;;1.83;;
15573;SDS011;7888;46.748;8.102;2022-12-18T03:40:17;3.03;;;2.30;;
15573;SDS011;7888;46.748;8.102;2022-12-18T03:43:03;2.87;;;2.13;;
15573;SDS011;7888;46.748;8.102;2022-12-18T03:45:51;2.67;;;2.30;;
15573;SDS011;7888;46.748;8.102;2022-12-18T03:48:31;2.50;;;2.03;;
15573;SDS011;7888;46.748;8.102;2022-12-18T03:51:31;3.33;;;2.40;;
15573;SDS011;7888;46.748;8.102;2022-12-18T03:54:21;3.10;;;2.23;;
15573;SDS011;7888;46.748;8.102;2022-12-18T03:56:59;3.53;;;2.43;;
15573;SDS011;7888;46.748;8.102;2022-12-18T03:59:34;3.07;;;2.27;;
15573;SDS011;7888;46.748;8.102;2022-12-18T04:02:03;3.40;;;2.40;;
15573;SDS011;7888;46.748;8.102;2022-12-18T04:04:33;3.03;;;2.27;;
15573;SDS011;7888;46.748;8.102;2022-12-18T04:07:02;3.17;;;2.70;;
15573;SDS011;7888;46.748;8.102;2022-12-18T04:09:30;3.47;;;2.50;;
15573;SDS011;7888;46.748;8.102;2022-12-18T04:11:58;2.50;;;2.07;;
15573;SDS011;7888;46.748;8.102;2022-12-18T04:14:24;2.57;;;2.13;;
15573;SDS011;7888;46.748;8.102;2022-12-18T04:16:50;2.90;;;2.00;;
15573;SDS011;7888;46.748;8.102;2022-12-18T04:19:16;2.93;;;2.10;;
15573;SDS011;7888;46.748;8.102;2022-12-18T04:21:42;2.57;;;2.07;;
15573;SDS011;7888;46.748;8.102;2022-12-18T04:24:07;3.10;;;2.30;;
15573;SDS011;7888;46.748;8.102;2022-12-18T04:26:33;2.87;;;2.10;;
15573;SDS011;7888;46.748;8.102;2022-12-18T04:28:59;3.50;;;2.33;;
15573;SDS011;7888;46.748;8.102;2022-12-18T04:31:25;3.20;;;2.33;;
15573;SDS011;7888;46.748;8.102;2022-12-18T04:33:51;3.20;;;2.30;;
15573;SDS011;7888;46.748;8.102;2022-12-18T04:36:17;2.60;;;2.20;;
15573;SDS011;7888;46.748;8.102;2022-12-18T04:38:43;3.23;;;2.13;;
15573;SDS011;7888;46.748;8.102;2022-12-18T04:41:09;3.67;;;2.50;;
15573;SDS011;7888;46.748;8.102;2022-12-18T04:43:35;3.47;;;2.40;;
15573;SDS011;7888;46.748;8.102;2022-12-18T04:46:04;3.87;;;2.60;;
15573;SDS011;7888;46.748;8.102;2022-12-18T04:48:32;3.80;;;2.47;;
15573;SDS011;7888;46.748;8.102;2022-12-18T04:50:59;2.43;;;2.10;;
15573;SDS011;7888;46.748;8.102;2022-12-18T04:53:25;3.13;;;2.40;;
15573;SDS011;7888;46.748;8.102;2022-12-18T04:56:01;2.67;;;2.10;;
15573;SDS011;7888;46.748;8.102;2022-12-18T04:58:32;4.40;;;2.47;;
15573;SDS011;7888;46.748;8.102;2022-12-18T05:00:58;3.53;;;2.40;;
15573;SDS011;7888;46.748;8.102;2022-12-18T05:03:24;2.40;;;2.20;;
15573;SDS011;7888;46.748;8.102;2022-12-18T05:05:50;3.57;;;2.70;;
15573;SDS011;7888;46.748;8.102;2022-12-18T05:08:16;2.63;;;2.00;;
15573;SDS011;7888;46.748;8.102;2022-12-18T05:10:42;3.87;;;2.83;;
15573;SDS011;7888;46.748;8.102;2022-12-18T05:13:08;2.80;;;2.20;;
15573;SDS011;7888;46.748;8.102;2022-12-18T05:15:34;2.40;;;2.17;;
15573;SDS011;7888;46.748;8.102;2022-12-18T05:18:00;3.60;;;2.80;;
15573;SDS011;7888;46.748;8.102;2022-12-18T05:20:28;3.33;;;2.43;;
15573;SDS011;7888;46.748;8.102;2022-12-18T05:22:54;5.57;;;4.10;;
15573;SDS011;7888;46.748;8.102;2022-12-18T05:25:21;6.40;;;4.07;;
15573;SDS011;7888;46.748;8.102;2022-12-18T05:27:47;5.23;;;3.70;;
15573;SDS011;7888;46.748;8.102;2022-12-18T05:30:14;7.37;;;4.90;;
15573;SDS011;7888;46.748;8.102;2022-12-18T05:32:41;25.43;;;12.33;;
15573;SDS011;7888;46.748;8.102;2022-12-18T05:35:08;30.57;;;13.93;;
15573;SDS011;7888;46.748;8.102;2022-12-18T05:37:35;36.50;;;17.20;;
15573;SDS011;7888;46.748;8.102;2022-12-18T05:40:02;28.13;;;14.77;;
15573;SDS011;7888;46.748;8.102;2022-12-18T05:42:29;16.70;;;10.43;;
15573;SDS011;7888;46.748;8.102;2022-12-18T05:44:56;13.07;;;8.27;;
15573;SDS011;7888;46.748;8.102;2022-12-18T05:47:22;10.00;;;6.97;;
15573;SDS011;7888;46.748;8.102;2022-12-18T05:49:47;7.77;;;5.83;;
15573;SDS011;7888;46.748;8.102;2022-12-18T05:52:13;6.47;;;5.37;;
15573;SDS011;7888;46.748;8.102;2022-12-18T05:54:39;5.53;;;4.13;;
15573;SDS011;7888;46.748;8.102;2022-12-18T05:57:05;5.37;;;3.70;;
15573;SDS011;7888;46.748;8.102;2022-12-18T05:59:30;6.13;;;4.30;;
15573;SDS011;7888;46.748;8.102;2022-12-18T06:01:56;4.80;;;4.20;;
15573;SDS011;7888;46.748;8.102;2022-12-18T06:04:22;5.00;;;3.97;;
15573;SDS011;7888;46.748;8.102;2022-12-18T06:06:48;6.97;;;4.10;;
15573;SDS011;7888;46.748;8.102;2022-12-18T06:09:13;4.87;;;4.00;;
15573;SDS011;7888;46.748;8.102;2022-12-18T06:11:39;4.97;;;3.90;;
15573;SDS011;7888;46.748;8.102;2022-12-18T06:14:05;6.10;;;4.03;;
15573;SDS011;7888;46.748;8.102;2022-12-18T06:16:32;5.83;;;3.90;;
15573;SDS011;7888;46.748;8.102;2022-12-18T06:18:58;4.83;;;3.70;;
15573;SDS011;7888;46.748;8.102;2022-12-18T06:21:26;7.93;;;4.67;;
15573;SDS011;7888;46.748;8.102;2022-12-18T06:23:53;9.77;;;5.47;;
15573;SDS011;7888;46.748;8.102;2022-12-18T06:26:19;6.50;;;4.40;;
15573;SDS011;7888;46.748;8.102;2022-12-18T06:28:45;8.83;;;5.57;;
15573;SDS011;7888;46.748;8.102;2022-12-18T06:31:11;6.30;;;3.97;;
15573;SDS011;7888;46.748;8.102;2022-12-18T06:33:37;5.27;;;3.27;;
15573;SDS011;7888;46.748;8.102;2022-12-18T06:36:13;4.20;;;3.00;;
15573;SDS011;7888;46.748;8.102;2022-12-18T06:38:41;5.83;;;3.47;;
15573;SDS011;7888;46.748;8.102;2022-12-18T06:43:43;6.80;;;4.43;;
15573;SDS011;7888;46.748;8.102;2022-12-18T06:46:09;5.70;;;3.73;;
15573;SDS011;7888;46.748;8.102;2022-12-18T06:48:36;5.30;;;3.50;;
15573;SDS011;7888;46.748;8.102;2022-12-18T06:51:02;6.07;;;3.60;;
15573;SDS011;7888;46.748;8.102;2022-12-18T06:53:29;7.07;;;4.63;;
15573;SDS011;7888;46.748;8.102;2022-12-18T06:56:02;6.83;;;4.17;;
15573;SDS011;7888;46.748;8.102;2022-12-18T06:58:31;5.77;;;4.23;;
15573;SDS011;7888;46.748;8.102;2022-12-18T07:01:00;6.43;;;4.03;;
15573;SDS011;7888;46.748;8.102;2022-12-18T07:03:27;4.80;;;3.87;;
15573;SDS011;7888;46.748;8.102;2022-12-18T07:05:54;6.07;;;3.83;;
15573;SDS011;7888;46.748;8.102;2022-12-18T07:08:19;5.23;;;4.10;;
15573;SDS011;7888;46.748;8.102;2022-12-18T07:10:46;5.43;;;4.43;;
15573;SDS011;7888;46.748;8.102;2022-12-18T07:13:14;6.23;;;5.20;;
15573;SDS011;7888;46.748;8.102;2022-12-18T07:15:40;5.57;;;4.53;;
15573;SDS011;7888;46.748;8.102;2022-12-18T07:18:08;4.43;;;3.40;;
15573;SDS011;7888;46.748;8.102;2022-12-18T07:20:34;5.17;;;3.17;;
15573;SDS011;7888;46.748;8.102;2022-12-18T07:23:01;4.80;;;3.20;;
15573;SDS011;7888;46.748;8.102;2022-12-18T07:25:28;5.27;;;3.87;;
15573;SDS011;7888;46.748;8.102;2022-12-18T07:27:54;5.13;;;3.93;;
15573;SDS011;7888;46.748;8.102;2022-12-18T07:30:20;4.90;;;3.73;;
15573;SDS011;7888;46.748;8.102;2022-12-18T07:32:46;4.20;;;3.67;;
15573;SDS011;7888;46.748;8.102;2022-12-18T07:35:11;4.70;;;3.60;;
15573;SDS011;7888;46.748;8.102;2022-12-18T07:37:37;8.40;;;5.40;;
15573;SDS011;7888;46.748;8.102;2022-12-18T07:40:03;7.73;;;5.37;;
15573;SDS011;7888;46.748;8.102;2022-12-18T07:42:30;111.03;;;13.17;;
15573;SDS011;7888;46.748;8.102;2022-12-18T07:44:55;8.30;;;6.60;;
15573;SDS011;7888;46.748;8.102;2022-12-18T07:47:22;12.50;;;8.73;;
15573;SDS011;7888;46.748;8.102;2022-12-18T07:49:48;14.33;;;10.20;;
15573;SDS011;7888;46.748;8.102;2022-12-18T07:52:14;10.73;;;9.10;;
15573;SDS011;7888;46.748;8.102;2022-12-18T07:54:40;13.00;;;8.80;;
15573;SDS011;7888;46.748;8.102;2022-12-18T07:57:06;10.07;;;7.67;;
15573;SDS011;7888;46.748;8.102;2022-12-18T07:59:33;8.60;;;7.67;;
15573;SDS011;7888;46.748;8.102;2022-12-18T08:02:00;8.93;;;7.23;;
15573;SDS011;7888;46.748;8.102;2022-12-18T08:04:25;9.90;;;7.80;;
15573;SDS011;7888;46.748;8.102;2022-12-18T08:06:52;9.53;;;7.27;;
15573;SDS011;7888;46.748;8.102;2022-12-18T08:09:17;10.50;;;8.33;;
15573;SDS011;7888;46.748;8.102;2022-12-18T08:11:43;9.83;;;7.70;;
15573;SDS011;7888;46.748;8.102;2022-12-18T08:14:09;10.57;;;7.70;;
15573;SDS011;7888;46.748;8.102;2022-12-18T08:16:35;10.03;;;6.97;;
15573;SDS011;7888;46.748;8.102;2022-12-18T08:19:01;16.97;;;9.53;;
15573;SDS011;7888;46.748;8.102;2022-12-18T08:21:28;16.43;;;9.30;;
15573;SDS011;7888;46.748;8.102;2022-12-18T08:23:56;11.07;;;7.70;;
15573;SDS011;7888;46.748;8.102;2022-12-18T08:26:25;10.37;;;7.40;;
15573;SDS011;7888;46.748;8.102;2022-12-18T08:28:55;8.00;;;6.20;;
15573;SDS011;7888;46.748;8.102;2022-12-18T08:31:23;10.13;;;8.53;;
15573;SDS011;7888;46.748;8.102;2022-12-18T08:33:51;13.83;;;10.27;;
15573;SDS011;7888;46.748;8.102;2022-12-18T08:36:18;13.83;;;9.63;;
15573;SDS011;7888;46.748;8.102;2022-12-18T08:38:45;13.37;;;8.67;;
15573;SDS011;7888;46.748;8.102;2022-12-18T08:41:12;10.73;;;8.07;;
15573;SDS011;7888;46.748;8.102;2022-12-18T08:43:40;9.83;;;7.97;;
15573;SDS011;7888;46.748;8.102;2022-12-18T08:46:26;14.17;;;9.53;;
15573;SDS011;7888;46.748;8.102;2022-12-18T08:48:57;12.13;;;8.23;;
15573;SDS011;7888;46.748;8.102;2022-12-18T08:51:23;16.00;;;9.87;;
15573;SDS011;7888;46.748;8.102;2022-12-18T08:53:49;10.53;;;7.20;;
15573;SDS011;7888;46.748;8.102;2022-12-18T08:56:15;8.47;;;5.53;;
15573;SDS011;7888;46.748;8.102;2022-12-18T08:58:42;5.80;;;3.40;;
15573;SDS011;7888;46.748;8.102;2022-12-18T09:01:09;4.43;;;3.07;;
15573;SDS011;7888;46.748;8.102;2022-12-18T09:03:37;4.07;;;3.20;;
15573;SDS011;7888;46.748;8.102;2022-12-18T09:06:04;5.40;;;2.83;;
15573;SDS011;7888;46.748;8.102;2022-12-18T09:08:30;4.03;;;3.07;;
15573;SDS011;7888;46.748;8.102;2022-12-18T09:10:56;5.93;;;3.73;;
15573;SDS011;7888;46.748;8.102;2022-12-18T09:13:22;6.27;;;4.37;;
15573;SDS011;7888;46.748;8.102;2022-12-18T09:15:50;6.43;;;4.60;;
15573;SDS011;7888;46.748;8.102;2022-12-18T09:18:18;5.27;;;3.67;;
15573;SDS011;7888;46.748;8.102;2022-12-18T09:20:47;4.93;;;4.07;;
15573;SDS011;7888;46.748;8.102;2022-12-18T09:23:13;7.70;;;4.43;;
15573;SDS011;7888;46.748;8.102;2022-12-18T09:25:39;4.87;;;3.70;;
15573;SDS011;7888;46.748;8.102;2022-12-18T09:28:06;4.37;;;3.40;;
15573;SDS011;7888;46.748;8.102;2022-12-18T09:30:43;3.97;;;3.23;;
15573;SDS011;7888;46.748;8.102;2022-12-18T09:33:14;16.63;;;4.57;;
15573;SDS011;7888;46.748;8.102;2022-12-18T09:35:41;4.63;;;3.30;;
15573;SDS011;7888;46.748;8.102;2022-12-18T09:38:13;3.27;;;2.87;;
15573;SDS011;7888;46.748;8.102;2022-12-18T09:40:50;3.90;;;2.87;;
15573;SDS011;7888;46.748;8.102;2022-12-18T09:43:26;5.07;;;3.47;;
15573;SDS011;7888;46.748;8.102;2022-12-18T09:45:58;4.33;;;3.20;;
15573;SDS011;7888;46.748;8.102;2022-12-18T09:48:32;4.90;;;3.33;;
15573;SDS011;7888;46.748;8.102;2022-12-18T09:51:10;4.27;;;3.40;;
15573;SDS011;7888;46.748;8.102;2022-12-18T09:53:44;3.03;;;2.60;;
15573;SDS011;7888;46.748;8.102;2022-12-18T09:56:19;4.33;;;2.27;;
15573;SDS011;7888;46.748;8.102;2022-12-18T10:01:28;3.73;;;1.90;;
15573;SDS011;7888;46.748;8.102;2022-12-18T10:03:55;3.40;;;2.07;;
15573;SDS011;7888;46.748;8.102;2022-12-18T10:15:00;4.73;;;2.60;;
15573;SDS011;7888;46.748;8.102;2022-12-18T10:20:44;2.77;;;2.43;;
15573;SDS011;7888;46.748;8.102;2022-12-18T10:26:19;3.07;;;2.30;;
15573;SDS011;7888;46.748;8.102;2022-12-18T10:28:45;3.03;;;2.47;;
15573;SDS011;7888;46.748;8.102;2022-12-18T10:31:19;2.00;;;1.67;;
15573;SDS011;7888;46.748;8.102;2022-12-18T10:33:48;2.43;;;2.13;;
15573;SDS011;7888;46.748;8.102;2022-12-18T10:36:15;2.33;;;2.10;;
15573;SDS011;7888;46.748;8.102;2022-12-18T10:38:41;2.37;;;1.83;;
15573;SDS011;7888;46.748;8.102;2022-12-18T10:44:35;3.07;;;2.30;;
15573;SDS011;7888;46.748;8.102;2022-12-18T10:46:43;2.67;;;2.30;;
15573;SDS011;7888;46.748;8.102;2022-12-18T10:49:23;3.07;;;2.63;;
15573;SDS011;7888;46.748;8.102;2022-12-18T10:54:52;4.97;;;3.43;;
15573;SDS011;7888;46.748;8.102;2022-12-18T11:02:53;2.63;;;2.20;;
15573;SDS011;7888;46.748;8.102;2022-12-18T11:05:30;2.37;;;2.03;;
15573;SDS011;7888;46.748;8.102;2022-12-18T11:08:01;2.93;;;2.00;;
15573;SDS011;7888;46.748;8.102;2022-12-18T11:10:30;2.47;;;2.13;;
15573;SDS011;7888;46.748;8.102;2022-12-18T11:13:10;2.07;;;1.73;;
15573;SDS011;7888;46.748;8.102;2022-12-18T11:15:48;1.50;;;1.40;;
15573;SDS011;7888;46.748;8.102;2022-12-18T11:18:35;1.90;;;1.60;;
15573;SDS011;7888;46.748;8.102;2022-12-18T11:21:08;2.20;;;2.00;;
15573;SDS011;7888;46.748;8.102;2022-12-18T11:23:37;2.13;;;1.93;;
15573;SDS011;7888;46.748;8.102;2022-12-18T11:26:14;2.27;;;2.07;;
15573;SDS011;7888;46.748;8.102;2022-12-18T11:28:44;1.70;;;1.60;;
15573;SDS011;7888;46.748;8.102;2022-12-18T11:33:59;1.83;;;1.73;;
15573;SDS011;7888;46.748;8.102;2022-12-18T11:36:43;2.40;;;2.20;;
15573;SDS011;7888;46.748;8.102;2022-12-18T11:39:20;2.13;;;1.93;;
15573;SDS011;7888;46.748;8.102;2022-12-18T11:42:05;2.93;;;2.30;;
15573;SDS011;7888;46.748;8.102;2022-12-18T11:47:54;2.70;;;2.13;;
15573;SDS011;7888;46.748;8.102;2022-12-18T11:53:22;2.53;;;2.10;;
15573;SDS011;7888;46.748;8.102;2022-12-18T11:58:53;1.93;;;1.83;;
15573;SDS011;7888;46.748;8.102;2022-12-18T12:01:44;2.30;;;2.10;;
15573;SDS011;7888;46.748;8.102;2022-12-18T12:07:24;2.60;;;2.30;;
15573;SDS011;7888;46.748;8.102;2022-12-18T12:16:29;2.53;;;2.33;;
15573;SDS011;7888;46.748;8.102;2022-12-18T12:22:16;2.40;;;2.20;;
15573;SDS011;7888;46.748;8.102;2022-12-18T12:25:44;3.40;;;3.00;;
15573;SDS011;7888;46.748;8.102;2022-12-18T12:34:23;3.20;;;2.87;;
15573;SDS011;7888;46.748;8.102;2022-12-18T12:40:00;2.90;;;2.70;;
15573;SDS011;7888;46.748;8.102;2022-12-18T12:51:21;2.70;;;2.40;;
15573;SDS011;7888;46.748;8.102;2022-12-18T12:53:54;3.40;;;2.97;;
15573;SDS011;7888;46.748;8.102;2022-12-18T12:56:24;2.90;;;2.70;;
15573;SDS011;7888;46.748;8.102;2022-12-18T12:59:15;2.90;;;2.60;;
15573;SDS011;7888;46.748;8.102;2022-12-18T13:04:44;3.90;;;2.90;;
15573;SDS011;7888;46.748;8.102;2022-12-18T13:07:27;2.70;;;2.50;;
15573;SDS011;7888;46.748;8.102;2022-12-18T13:10:30;3.33;;;2.63;;
15573;SDS011;7888;46.748;8.102;2022-12-18T13:20:47;3.33;;;2.60;;
15573;SDS011;7888;46.748;8.102;2022-12-18T13:25:56;3.40;;;2.80;;
15573;SDS011;7888;46.748;8.102;2022-12-18T13:30:59;4.90;;;2.73;;
15573;SDS011;7888;46.748;8.102;2022-12-18T13:36:16;3.10;;;2.80;;
15573;SDS011;7888;46.748;8.102;2022-12-18T13:38:47;3.00;;;2.70;;
15573;SDS011;7888;46.748;8.102;2022-12-18T13:41:43;2.87;;;2.40;;
15573;SDS011;7888;46.748;8.102;2022-12-18T13:46:49;3.67;;;3.03;;
15573;SDS011;7888;46.748;8.102;2022-12-18T13:52:02;4.03;;;3.30;;
15573;SDS011;7888;46.748;8.102;2022-12-18T13:54:55;5.07;;;4.37;;
15573;SDS011;7888;46.748;8.102;2022-12-18T13:57:29;4.87;;;4.10;;
15573;SDS011;7888;46.748;8.102;2022-12-18T13:59:57;4.43;;;3.90;;
15573;SDS011;7888;46.748;8.102;2022-12-18T14:02:37;4.50;;;4.00;;
15573;SDS011;7888;46.748;8.102;2022-12-18T14:05:03;4.13;;;3.73;;
15573;SDS011;7888;46.748;8.102;2022-12-18T14:07:29;4.93;;;3.70;;
15573;SDS011;7888;46.748;8.102;2022-12-18T14:09:57;4.57;;;3.70;;
15573;SDS011;7888;46.748;8.102;2022-12-18T14:12:29;4.20;;;3.37;;
15573;SDS011;7888;46.748;8.102;2022-12-18T14:15:25;4.90;;;3.87;;
15573;SDS011;7888;46.748;8.102;2022-12-18T14:18:25;5.20;;;3.80;;
15573;SDS011;7888;46.748;8.102;2022-12-18T14:21:26;4.73;;;3.80;;
15573;SDS011;7888;46.748;8.102;2022-12-18T14:26:46;4.33;;;3.53;;
15573;SDS011;7888;46.748;8.102;2022-12-18T14:29:24;3.93;;;2.80;;
15573;SDS011;7888;46.748;8.102;2022-12-18T14:34:41;3.13;;;2.80;;
15573;SDS011;7888;46.748;8.102;2022-12-18T14:37:09;2.97;;;2.67;;
15573;SDS011;7888;46.748;8.102;2022-12-18T14:39:37;2.50;;;2.27;;
15573;SDS011;7888;46.748;8.102;2022-12-18T14:42:03;4.10;;;2.90;;
15573;SDS011;7888;46.748;8.102;2022-12-18T14:44:29;2.87;;;2.57;;
15573;SDS011;7888;46.748;8.102;2022-12-18T14:46:55;3.40;;;3.10;;
15573;SDS011;7888;46.748;8.102;2022-12-18T14:51:58;3.57;;;3.10;;
15573;SDS011;7888;46.748;8.102;2022-12-18T14:54:27;4.07;;;3.10;;
15573;SDS011;7888;46.748;8.102;2022-12-18T14:57:00;4.07;;;2.70;;
15573;SDS011;7888;46.748;8.102;2022-12-18T14:59:40;2.90;;;2.60;;
15573;SDS011;7888;46.748;8.102;2022-12-18T15:05:04;4.37;;;3.23;;
15573;SDS011;7888;46.748;8.102;2022-12-18T15:07:50;3.90;;;2.70;;
15573;SDS011;7888;46.748;8.102;2022-12-18T15:10:22;3.10;;;2.70;;
15573;SDS011;7888;46.748;8.102;2022-12-18T15:18:20;2.03;;;1.83;;
15573;SDS011;7888;46.748;8.102;2022-12-18T15:21:00;3.20;;;2.27;;
15573;SDS011;7888;46.748;8.102;2022-12-18T15:23:36;2.00;;;1.77;;
15573;SDS011;7888;46.748;8.102;2022-12-18T15:26:12;2.73;;;2.00;;
15573;SDS011;7888;46.748;8.102;2022-12-18T15:28:56;3.67;;;2.23;;
15573;SDS011;7888;46.748;8.102;2022-12-18T15:31:31;2.83;;;2.10;;
15573;SDS011;7888;46.748;8.102;2022-12-18T15:34:09;4.00;;;2.90;;
15573;SDS011;7888;46.748;8.102;2022-12-18T15:36:42;153.13;;;12.87;;
15573;SDS011;7888;46.748;8.102;2022-12-18T15:39:10;3.20;;;2.70;;
15573;SDS011;7888;46.748;8.102;2022-12-18T15:41:38;3.53;;;2.73;;
15573;SDS011;7888;46.748;8.102;2022-12-18T15:44:19;3.17;;;2.67;;
15573;SDS011;7888;46.748;8.102;2022-12-18T15:46:48;5.37;;;3.53;;
15573;SDS011;7888;46.748;8.102;2022-12-18T15:49:14;3.63;;;3.10;;
15573;SDS011;7888;46.748;8.102;2022-12-18T15:51:40;5.37;;;4.10;;
15573;SDS011;7888;46.748;8.102;2022-12-18T15:54:08;7.40;;;5.30;;
15573;SDS011;7888;46.748;8.102;2022-12-18T15:56:41;7.47;;;4.83;;
15573;SDS011;7888;46.748;8.102;2022-12-18T15:59:26;7.70;;;6.13;;
15573;SDS011;7888;46.748;8.102;2022-12-18T16:01:52;9.33;;;7.60;;
15573;SDS011;7888;46.748;8.102;2022-12-18T16:04:18;10.60;;;8.17;;
15573;SDS011;7888;46.748;8.102;2022-12-18T16:06:49;9.70;;;7.83;;
15573;SDS011;7888;46.748;8.102;2022-12-18T16:09:16;8.33;;;6.80;;
15573;SDS011;7888;46.748;8.102;2022-12-18T16:11:43;10.63;;;7.33;;
15573;SDS011;7888;46.748;8.102;2022-12-18T16:16:52;20.23;;;11.57;;
15573;SDS011;7888;46.748;8.102;2022-12-18T16:19:27;12.40;;;8.67;;
15573;SDS011;7888;46.748;8.102;2022-12-18T16:21:54;11.87;;;8.13;;
15573;SDS011;7888;46.748;8.102;2022-12-18T16:24:23;10.00;;;8.00;;
15573;SDS011;7888;46.748;8.102;2022-12-18T16:26:56;14.57;;;10.87;;
15573;SDS011;7888;46.748;8.102;2022-12-18T16:29:24;18.43;;;12.50;;
15573;SDS011;7888;46.748;8.102;2022-12-18T16:32:01;20.30;;;13.63;;
15573;SDS011;7888;46.748;8.102;2022-12-18T16:36:59;42.73;;;26.70;;
15573;SDS011;7888;46.748;8.102;2022-12-18T16:39:28;84.40;;;39.03;;
15573;SDS011;7888;46.748;8.102;2022-12-18T16:41:55;65.10;;;30.23;;
15573;SDS011;7888;46.748;8.102;2022-12-18T16:44:21;58.90;;;27.60;;
15573;SDS011;7888;46.748;8.102;2022-12-18T16:46:47;44.30;;;25.10;;
15573;SDS011;7888;46.748;8.102;2022-12-18T16:49:14;30.40;;;18.23;;
15573;SDS011;7888;46.748;8.102;2022-12-18T16:51:41;27.27;;;16.23;;
15573;SDS011;7888;46.748;8.102;2022-12-18T16:54:08;17.47;;;12.80;;
15573;SDS011;7888;46.748;8.102;2022-12-18T16:56:34;13.30;;;10.23;;
15573;SDS011;7888;46.748;8.102;2022-12-18T16:59:01;11.33;;;8.70;;
15573;SDS011;7888;46.748;8.102;2022-12-18T17:01:28;9.07;;;7.33;;
15573;SDS011;7888;46.748;8.102;2022-12-18T17:04:00;8.40;;;7.43;;
15573;SDS011;7888;46.748;8.102;2022-12-18T17:06:30;8.30;;;7.00;;
15573;SDS011;7888;46.748;8.102;2022-12-18T17:09:01;8.23;;;6.53;;
15573;SDS011;7888;46.748;8.102;2022-12-18T17:11:30;8.53;;;6.87;;
15573;SDS011;7888;46.748;8.102;2022-12-18T17:13:58;8.80;;;6.90;;
15573;SDS011;7888;46.748;8.102;2022-12-18T17:16:24;7.57;;;5.97;;
15573;SDS011;7888;46.748;8.102;2022-12-18T17:18:53;6.87;;;5.63;;
15573;SDS011;7888;46.748;8.102;2022-12-18T17:21:19;8.40;;;5.10;;
15573;SDS011;7888;46.748;8.102;2022-12-18T17:23:45;6.87;;;4.37;;
15573;SDS011;7888;46.748;8.102;2022-12-18T17:26:11;3.83;;;3.37;;
15573;SDS011;7888;46.748;8.102;2022-12-18T17:28:38;5.47;;;4.03;;
15573;SDS011;7888;46.748;8.102;2022-12-18T17:31:21;3.83;;;3.30;;
15573;SDS011;7888;46.748;8.102;2022-12-18T17:33:49;5.43;;;4.40;;
15573;SDS011;7888;46.748;8.102;2022-12-18T17:36:16;6.43;;;4.80;;
15573;SDS011;7888;46.748;8.102;2022-12-18T17:38:43;5.07;;;4.40;;
15573;SDS011;7888;46.748;8.102;2022-12-18T17:41:20;5.20;;;3.97;;
15573;SDS011;7888;46.748;8.102;2022-12-18T17:43:50;4.57;;;3.87;;
15573;SDS011;7888;46.748;8.102;2022-12-18T17:46:18;8.47;;;6.10;;
15573;SDS011;7888;46.748;8.102;2022-12-18T17:48:45;7.10;;;5.30;;
15573;SDS011;7888;46.748;8.102;2022-12-18T17:51:11;9.20;;;5.83;;